sensor_id;sensor_type;location;lat;lon;timestamp;pressure;altitude;pressure_sealevel;temperature;humidity
61478;BME280;47345;52.334;10.392;2023-02-27T00:01:03;102052.02;;;-1.29;76.97
61478;BME280;47345;52.334;10.392;2023-02-27T00:03:36;102053.44;;;-1.29;76.72
61478;BME280;47345;52.334;10.392;2023-02-27T00:06:09;102048.41;;;-1.32;76.27
61478;BME280;47345;52.334;10.392;2023-02-27T00:08:42;102049.86;;;-1.35;76.03
61478;BME280;47345;52.334;10.392;2023-02-27T00:11:16;102049.00;;;-1.38;76.35
61478;BME280;47345;52.334;10.392;2023-02-27T00:13:49;102050.08;;;-1.41;76.49
61478;BME280;47345;52.334;10.392;2023-02-27T00:16:22;102049.30;;;-1.43;76.98
61478;BME280;47345;52.334;10.392;2023-02-27T00:18:56;102047.98;;;-1.45;77.36
61478;BME280;47345;52.334;10.392;2023-02-27T00:21:31;102051.05;;;-1.45;77.68
61478;BME280;47345;52.334;10.392;2023-02-27T00:24:07;102048.42;;;-1.43;78.52
61478;BME280;47345;52.334;10.392;2023-02-27T00:26:41;102047.77;;;-1.41;78.60
61478;BME280;47345;52.334;10.392;2023-02-27T00:29:14;102048.85;;;-1.39;78.69
61478;BME280;47345;52.334;10.392;2023-02-27T00:31:47;102053.02;;;-1.37;79.06
61478;BME280;47345;52.334;10.392;2023-02-27T00:34:22;102052.02;;;-1.35;79.49
61478;BME280;47345;52.334;10.392;2023-02-27T00:36:54;102054.75;;;-1.33;79.22
61478;BME280;47345;52.334;10.392;2023-02-27T00:39:27;102052.96;;;-1.33;79.18
61478;BME280;47345;52.334;10.392;2023-02-27T00:41:59;102056.32;;;-1.32;79.34
61478;BME280;47345;52.334;10.392;2023-02-27T00:44:32;102053.77;;;-1.32;79.06
61478;BME280;47345;52.334;10.392;2023-02-27T00:47:08;102054.69;;;-1.32;79.30
61478;BME280;47345;52.334;10.392;2023-02-27T00:49:41;102049.17;;;-1.35;78.78
61478;BME280;47345;52.334;10.392;2023-02-27T00:52:16;102048.15;;;-1.36;78.49
61478;BME280;47345;52.334;10.392;2023-02-27T00:54:48;102048.35;;;-1.39;78.14
61478;BME280;47345;52.334;10.392;2023-02-27T00:57:20;102049.25;;;-1.42;77.99
61478;BME280;47345;52.334;10.392;2023-02-27T00:59:53;102054.86;;;-1.43;77.99
61478;BME280;47345;52.334;10.392;2023-02-27T01:02:26;102059.80;;;-1.45;77.97
61478;BME280;47345;52.334;10.392;2023-02-27T01:04:59;102051.93;;;-1.48;78.13
61478;BME280;47345;52.334;10.392;2023-02-27T01:07:33;102051.03;;;-1.48;78.29
61478;BME280;47345;52.334;10.392;2023-02-27T01:10:08;102055.79;;;-1.47;78.65
61478;BME280;47345;52.334;10.392;2023-02-27T01:12:43;102050.84;;;-1.45;78.93
61478;BME280;47345;52.334;10.392;2023-02-27T01:15:16;102052.73;;;-1.44;78.99
61478;BME280;47345;52.334;10.392;2023-02-27T01:17:49;102050.85;;;-1.45;78.90
61478;BME280;47345;52.334;10.392;2023-02-27T01:20:22;102053.21;;;-1.49;78.72
61478;BME280;47345;52.334;10.392;2023-02-27T01:22:54;102047.03;;;-1.53;78.68
61478;BME280;47345;52.334;10.392;2023-02-27T01:25:27;102050.69;;;-1.54;78.81
61478;BME280;47345;52.334;10.392;2023-02-27T01:28:00;102048.70;;;-1.57;78.52
61478;BME280;47345;52.334;10.392;2023-02-27T01:30:32;102051.23;;;-1.60;78.79
61478;BME280;47345;52.334;10.392;2023-02-27T01:33:05;102049.77;;;-1.62;78.59
61478;BME280;47345;52.334;10.392;2023-02-27T01:35:39;102051.75;;;-1.65;78.20
61478;BME280;47345;52.334;10.392;2023-02-27T01:38:11;102054.59;;;-1.71;77.81
61478;BME280;47345;52.334;10.392;2023-02-27T01:40:44;102051.04;;;-1.77;77.68
61478;BME280;47345;52.334;10.392;2023-02-27T01:43:20;102051.34;;;-1.82;77.87
61478;BME280;47345;52.334;10.392;2023-02-27T01:45:54;102045.27;;;-1.85;78.02
61478;BME280;47345;52.334;10.392;2023-02-27T01:48:29;102048.79;;;-1.84;78.43
61478;BME280;47345;52.334;10.392;2023-02-27T01:51:06;102045.82;;;-1.85;78.43
61478;BME280;47345;52.334;10.392;2023-02-27T01:53:41;102043.18;;;-1.86;78.67
61478;BME280;47345;52.334;10.392;2023-02-27T01:56:19;102040.96;;;-1.85;79.26
61478;BME280;47345;52.334;10.392;2023-02-27T01:58:54;102040.17;;;-1.84;79.60
61478;BME280;47345;52.334;10.392;2023-02-27T02:01:28;102045.60;;;-1.82;79.68
61478;BME280;47345;52.334;10.392;2023-02-27T02:04:04;102043.66;;;-1.80;79.69
61478;BME280;47345;52.334;10.392;2023-02-27T02:06:43;102047.95;;;-1.79;79.76
61478;BME280;47345;52.334;10.392;2023-02-27T02:09:19;102050.03;;;-1.78;79.18
61478;BME280;47345;52.334;10.392;2023-02-27T02:11:55;102049.27;;;-1.81;78.75
61478;BME280;47345;52.334;10.392;2023-02-27T02:14:28;102048.37;;;-1.83;78.26
61478;BME280;47345;52.334;10.392;2023-02-27T02:17:10;102051.92;;;-1.86;78.67
61478;BME280;47345;52.334;10.392;2023-02-27T02:23:21;102053.85;;;-1.85;79.31
61478;BME280;47345;52.334;10.392;2023-02-27T02:26:28;102054.02;;;-1.88;78.82
61478;BME280;47345;52.334;10.392;2023-02-27T02:29:42;102053.28;;;-1.91;78.89
61478;BME280;47345;52.334;10.392;2023-02-27T02:38:51;102055.80;;;-1.91;80.14
61478;BME280;47345;52.334;10.392;2023-02-27T02:41:39;102053.58;;;-1.89;80.01
61478;BME280;47345;52.334;10.392;2023-02-27T02:44:20;102049.44;;;-1.89;80.00
61478;BME280;47345;52.334;10.392;2023-02-27T02:46:59;102048.36;;;-1.89;79.76
61478;BME280;47345;52.334;10.392;2023-02-27T02:49:40;102046.18;;;-1.91;79.77
61478;BME280;47345;52.334;10.392;2023-02-27T02:52:22;102047.81;;;-1.92;80.36
61478;BME280;47345;52.334;10.392;2023-02-27T02:55:05;102042.40;;;-1.91;80.47
61478;BME280;47345;52.334;10.392;2023-02-27T02:57:42;102047.00;;;-1.90;80.56
61478;BME280;47345;52.334;10.392;2023-02-27T03:00:20;102044.64;;;-1.90;80.71
61478;BME280;47345;52.334;10.392;2023-02-27T03:02:59;102042.73;;;-1.91;80.46
61478;BME280;47345;52.334;10.392;2023-02-27T03:05:36;102046.63;;;-1.90;80.75
61478;BME280;47345;52.334;10.392;2023-02-27T03:08:14;102044.72;;;-1.91;80.49
61478;BME280;47345;52.334;10.392;2023-02-27T03:10:51;102044.37;;;-1.91;80.72
61478;BME280;47345;52.334;10.392;2023-02-27T03:13:29;102044.34;;;-1.90;80.73
61478;BME280;47345;52.334;10.392;2023-02-27T03:16:06;102047.66;;;-1.92;80.56
61478;BME280;47345;52.334;10.392;2023-02-27T03:18:46;102049.60;;;-1.95;80.36
61478;BME280;47345;52.334;10.392;2023-02-27T03:21:23;102052.28;;;-1.98;80.39
61478;BME280;47345;52.334;10.392;2023-02-27T03:24:01;102057.46;;;-2.01;80.31
61478;BME280;47345;52.334;10.392;2023-02-27T03:26:37;102063.93;;;-2.04;80.15
61478;BME280;47345;52.334;10.392;2023-02-27T03:29:13;102065.69;;;-2.07;79.70
61478;BME280;47345;52.334;10.392;2023-02-27T03:31:52;102062.41;;;-2.09;79.56
61478;BME280;47345;52.334;10.392;2023-02-27T03:34:30;102062.57;;;-2.12;79.10
61478;BME280;47345;52.334;10.392;2023-02-27T03:37:11;102063.08;;;-2.14;79.18
61478;BME280;47345;52.334;10.392;2023-02-27T03:39:49;102066.73;;;-2.18;78.53
61478;BME280;47345;52.334;10.392;2023-02-27T03:42:28;102068.09;;;-2.23;78.67
61478;BME280;47345;52.334;10.392;2023-02-27T03:45:06;102066.05;;;-2.25;79.31
61478;BME280;47345;52.334;10.392;2023-02-27T03:47:44;102065.91;;;-2.26;79.50
61478;BME280;47345;52.334;10.392;2023-02-27T03:50:17;102060.68;;;-2.25;79.93
61478;BME280;47345;52.334;10.392;2023-02-27T03:52:50;102064.27;;;-2.25;79.78
61478;BME280;47345;52.334;10.392;2023-02-27T03:55:26;102067.60;;;-2.27;79.23
61478;BME280;47345;52.334;10.392;2023-02-27T03:58:00;102070.71;;;-2.28;79.45
61478;BME280;47345;52.334;10.392;2023-02-27T04:00:32;102073.16;;;-2.27;79.65
61478;BME280;47345;52.334;10.392;2023-02-27T04:03:05;102075.29;;;-2.27;79.73
61478;BME280;47345;52.334;10.392;2023-02-27T04:05:38;102077.46;;;-2.28;79.63
61478;BME280;47345;52.334;10.392;2023-02-27T04:08:37;102076.63;;;-2.29;79.44
61478;BME280;47345;52.334;10.392;2023-02-27T04:11:37;102082.43;;;-2.30;79.62
61478;BME280;47345;52.334;10.392;2023-02-27T04:14:32;102084.17;;;-2.32;79.15
61478;BME280;47345;52.334;10.392;2023-02-27T04:17:24;102079.76;;;-2.33;79.84
61478;BME280;47345;52.334;10.392;2023-02-27T04:20:11;102075.88;;;-2.34;80.22
61478;BME280;47345;52.334;10.392;2023-02-27T04:22:48;102076.71;;;-2.33;80.68
61478;BME280;47345;52.334;10.392;2023-02-27T04:25:36;102081.16;;;-2.33;80.66
61478;BME280;47345;52.334;10.392;2023-02-27T04:28:15;102082.62;;;-2.33;80.77
61478;BME280;47345;52.334;10.392;2023-02-27T04:30:56;102084.62;;;-2.31;81.22
61478;BME280;47345;52.334;10.392;2023-02-27T04:33:39;102082.36;;;-2.29;81.04
61478;BME280;47345;52.334;10.392;2023-02-27T04:36:21;102082.94;;;-2.27;81.37
61478;BME280;47345;52.334;10.392;2023-02-27T04:39:02;102084.48;;;-2.25;81.16
61478;BME280;47345;52.334;10.392;2023-02-27T04:41:42;102088.98;;;-2.26;81.17
61478;BME280;47345;52.334;10.392;2023-02-27T04:44:19;102095.21;;;-2.29;80.78
61478;BME280;47345;52.334;10.392;2023-02-27T04:46:53;102102.31;;;-2.34;80.70
61478;BME280;47345;52.334;10.392;2023-02-27T04:49:30;102099.66;;;-2.38;80.90
61478;BME280;47345;52.334;10.392;2023-02-27T04:52:07;102105.01;;;-2.37;81.03
61478;BME280;47345;52.334;10.392;2023-02-27T04:54:44;102107.89;;;-2.38;81.18
61478;BME280;47345;52.334;10.392;2023-02-27T04:57:21;102107.35;;;-2.38;81.34
61478;BME280;47345;52.334;10.392;2023-02-27T04:59:55;102106.86;;;-2.39;80.75
61478;BME280;47345;52.334;10.392;2023-02-27T05:02:32;102110.77;;;-2.38;81.05
61478;BME280;47345;52.334;10.392;2023-02-27T05:05:08;102107.99;;;-2.40;80.59
61478;BME280;47345;52.334;10.392;2023-02-27T05:07:46;102108.98;;;-2.41;80.77
61478;BME280;47345;52.334;10.392;2023-02-27T05:10:25;102108.90;;;-2.43;80.36
61478;BME280;47345;52.334;10.392;2023-02-27T05:13:01;102109.48;;;-2.44;80.49
61478;BME280;47345;52.334;10.392;2023-02-27T05:15:38;102114.38;;;-2.45;80.42
61478;BME280;47345;52.334;10.392;2023-02-27T05:18:12;102113.27;;;-2.47;80.23
61478;BME280;47345;52.334;10.392;2023-02-27T05:20:55;102113.77;;;-2.50;80.34
61478;BME280;47345;52.334;10.392;2023-02-27T05:23:38;102116.02;;;-2.52;80.20
61478;BME280;47345;52.334;10.392;2023-02-27T05:26:17;102111.20;;;-2.55;80.34
61478;BME280;47345;52.334;10.392;2023-02-27T05:28:59;102117.60;;;-2.55;80.12
61478;BME280;47345;52.334;10.392;2023-02-27T05:31:37;102117.90;;;-2.57;80.31
61478;BME280;47345;52.334;10.392;2023-02-27T05:34:18;102121.58;;;-2.56;80.78
61478;BME280;47345;52.334;10.392;2023-02-27T05:36:58;102124.57;;;-2.55;80.41
61478;BME280;47345;52.334;10.392;2023-02-27T05:39:33;102129.77;;;-2.55;80.58
61478;BME280;47345;52.334;10.392;2023-02-27T05:42:10;102135.05;;;-2.54;80.33
61478;BME280;47345;52.334;10.392;2023-02-27T05:44:48;102133.58;;;-2.53;80.72
61478;BME280;47345;52.334;10.392;2023-02-27T05:47:25;102132.40;;;-2.51;80.68
61478;BME280;47345;52.334;10.392;2023-02-27T05:50:03;102128.65;;;-2.48;80.68
61478;BME280;47345;52.334;10.392;2023-02-27T05:52:37;102134.85;;;-2.44;80.84
61478;BME280;47345;52.334;10.392;2023-02-27T05:55:15;102136.55;;;-2.39;80.80
61478;BME280;47345;52.334;10.392;2023-02-27T05:57:52;102139.30;;;-2.34;80.76
61478;BME280;47345;52.334;10.392;2023-02-27T06:00:31;102138.85;;;-2.29;81.02
61478;BME280;47345;52.334;10.392;2023-02-27T06:03:04;102139.66;;;-2.25;81.02
61478;BME280;47345;52.334;10.392;2023-02-27T06:05:40;102146.22;;;-2.20;80.81
61478;BME280;47345;52.334;10.392;2023-02-27T06:08:14;102150.77;;;-2.16;81.23
61478;BME280;47345;52.334;10.392;2023-02-27T06:10:46;102154.91;;;-2.10;81.15
61478;BME280;47345;52.334;10.392;2023-02-27T06:13:19;102159.84;;;-2.05;80.93
61478;BME280;47345;52.334;10.392;2023-02-27T06:15:51;102163.67;;;-2.01;80.81
61478;BME280;47345;52.334;10.392;2023-02-27T06:18:23;102169.85;;;-1.96;81.16
61478;BME280;47345;52.334;10.392;2023-02-27T06:20:55;102171.31;;;-1.94;81.18
61478;BME280;47345;52.334;10.392;2023-02-27T06:23:28;102174.31;;;-1.94;81.15
61478;BME280;47345;52.334;10.392;2023-02-27T06:26:01;102174.62;;;-1.92;81.40
61478;BME280;47345;52.334;10.392;2023-02-27T06:28:33;102178.16;;;-1.88;81.86
61478;BME280;47345;52.334;10.392;2023-02-27T06:31:06;102183.30;;;-1.85;81.94
61478;BME280;47345;52.334;10.392;2023-02-27T06:33:38;102185.26;;;-1.82;81.97
61478;BME280;47345;52.334;10.392;2023-02-27T06:36:10;102185.35;;;-1.77;81.98
61478;BME280;47345;52.334;10.392;2023-02-27T06:38:41;102186.44;;;-1.71;82.09
61478;BME280;47345;52.334;10.392;2023-02-27T06:41:14;102184.17;;;-1.66;81.98
61478;BME280;47345;52.334;10.392;2023-02-27T06:43:46;102190.93;;;-1.62;81.83
61478;BME280;47345;52.334;10.392;2023-02-27T06:46:19;102193.05;;;-1.59;81.99
61478;BME280;47345;52.334;10.392;2023-02-27T06:48:51;102192.83;;;-1.56;82.04
61478;BME280;47345;52.334;10.392;2023-02-27T06:51:24;102193.61;;;-1.51;82.19
61478;BME280;47345;52.334;10.392;2023-02-27T06:53:56;102194.51;;;-1.44;82.26
61478;BME280;47345;52.334;10.392;2023-02-27T06:56:29;102197.61;;;-1.39;82.16
61478;BME280;47345;52.334;10.392;2023-02-27T06:59:02;102199.70;;;-1.36;81.90
61478;BME280;47345;52.334;10.392;2023-02-27T07:01:35;102201.61;;;-1.31;82.05
61478;BME280;47345;52.334;10.392;2023-02-27T07:04:08;102205.73;;;-1.28;81.92
61478;BME280;47345;52.334;10.392;2023-02-27T07:06:43;102202.48;;;-1.25;81.84
61478;BME280;47345;52.334;10.392;2023-02-27T07:09:36;102195.33;;;-1.22;81.99
61478;BME280;47345;52.334;10.392;2023-02-27T07:12:09;102198.90;;;-1.20;82.42
61478;BME280;47345;52.334;10.392;2023-02-27T07:14:41;102196.30;;;-1.14;82.35
61478;BME280;47345;52.334;10.392;2023-02-27T07:17:13;102199.68;;;-1.08;82.56
61478;BME280;47345;52.334;10.392;2023-02-27T07:19:45;102198.14;;;-1.04;82.71
61478;BME280;47345;52.334;10.392;2023-02-27T07:22:17;102198.02;;;-0.99;82.86
61478;BME280;47345;52.334;10.392;2023-02-27T07:24:49;102192.52;;;-0.97;82.99
61478;BME280;47345;52.334;10.392;2023-02-27T07:27:22;102186.94;;;-0.94;83.25
61478;BME280;47345;52.334;10.392;2023-02-27T07:29:54;102186.19;;;-0.93;83.12
61478;BME280;47345;52.334;10.392;2023-02-27T07:32:27;102182.77;;;-0.96;83.01
61478;BME280;47345;52.334;10.392;2023-02-27T07:34:59;102185.92;;;-1.00;83.00
61478;BME280;47345;52.334;10.392;2023-02-27T07:37:33;102185.19;;;-1.06;83.22
61478;BME280;47345;52.334;10.392;2023-02-27T07:40:06;102188.67;;;-1.13;83.32
61478;BME280;47345;52.334;10.392;2023-02-27T07:42:39;102196.09;;;-1.17;83.72
61478;BME280;47345;52.334;10.392;2023-02-27T07:45:12;102201.61;;;-1.20;83.98
61478;BME280;47345;52.334;10.392;2023-02-27T07:47:44;102199.77;;;-1.19;84.26
61478;BME280;47345;52.334;10.392;2023-02-27T07:50:17;102203.19;;;-1.16;84.33
61478;BME280;47345;52.334;10.392;2023-02-27T07:52:50;102206.29;;;-1.11;84.20
61478;BME280;47345;52.334;10.392;2023-02-27T07:55:23;102207.82;;;-1.04;84.29
61478;BME280;47345;52.334;10.392;2023-02-27T07:57:55;102216.25;;;-0.98;84.21
61478;BME280;47345;52.334;10.392;2023-02-27T08:00:27;102222.17;;;-0.93;84.34
61478;BME280;47345;52.334;10.392;2023-02-27T08:02:59;102227.17;;;-0.87;84.29
61478;BME280;47345;52.334;10.392;2023-02-27T08:05:32;102231.67;;;-0.81;84.18
61478;BME280;47345;52.334;10.392;2023-02-27T08:08:04;102230.05;;;-0.75;84.07
61478;BME280;47345;52.334;10.392;2023-02-27T08:10:37;102225.41;;;-0.67;84.11
61478;BME280;47345;52.334;10.392;2023-02-27T08:13:09;102227.38;;;-0.61;83.80
61478;BME280;47345;52.334;10.392;2023-02-27T08:15:41;102227.98;;;-0.56;83.71
61478;BME280;47345;52.334;10.392;2023-02-27T08:18:14;102232.50;;;-0.51;83.52
61478;BME280;47345;52.334;10.392;2023-02-27T08:20:46;102236.64;;;-0.46;83.41
61478;BME280;47345;52.334;10.392;2023-02-27T08:23:19;102245.56;;;-0.40;83.38
61478;BME280;47345;52.334;10.392;2023-02-27T08:25:51;102246.27;;;-0.34;83.35
61478;BME280;47345;52.334;10.392;2023-02-27T08:28:24;102244.77;;;-0.27;83.25
61478;BME280;47345;52.334;10.392;2023-02-27T08:30:57;102240.33;;;-0.22;83.08
61478;BME280;47345;52.334;10.392;2023-02-27T08:33:31;102245.33;;;-0.16;83.29
61478;BME280;47345;52.334;10.392;2023-02-27T08:36:03;102248.44;;;-0.09;83.17
61478;BME280;47345;52.334;10.392;2023-02-27T08:38:36;102252.88;;;-0.03;82.98
61478;BME280;47345;52.334;10.392;2023-02-27T08:41:09;102255.75;;;0.03;83.04
61478;BME280;47345;52.334;10.392;2023-02-27T08:43:42;102263.65;;;0.08;82.69
61478;BME280;47345;52.334;10.392;2023-02-27T08:46:15;102263.40;;;0.12;82.54
61478;BME280;47345;52.334;10.392;2023-02-27T08:48:47;102260.91;;;0.17;82.72
61478;BME280;47345;52.334;10.392;2023-02-27T08:51:18;102263.77;;;0.25;82.72
61478;BME280;47345;52.334;10.392;2023-02-27T08:53:52;102260.55;;;0.34;82.55
61478;BME280;47345;52.334;10.392;2023-02-27T08:56:28;102253.02;;;0.42;82.48
61478;BME280;47345;52.334;10.392;2023-02-27T08:59:03;102258.66;;;0.51;82.62
61478;BME280;47345;52.334;10.392;2023-02-27T09:01:36;102254.66;;;0.60;82.61
61478;BME280;47345;52.334;10.392;2023-02-27T09:04:08;102257.30;;;0.69;82.39
61478;BME280;47345;52.334;10.392;2023-02-27T09:06:41;102260.52;;;0.77;82.23
61478;BME280;47345;52.334;10.392;2023-02-27T09:09:13;102264.35;;;0.84;81.98
61478;BME280;47345;52.334;10.392;2023-02-27T09:11:45;102264.27;;;0.91;81.95
61478;BME280;47345;52.334;10.392;2023-02-27T09:14:17;102260.45;;;0.99;81.72
61478;BME280;47345;52.334;10.392;2023-02-27T09:16:49;102261.59;;;1.08;81.65
61478;BME280;47345;52.334;10.392;2023-02-27T09:19:22;102264.29;;;1.16;81.60
61478;BME280;47345;52.334;10.392;2023-02-27T09:21:54;102261.84;;;1.23;81.46
61478;BME280;47345;52.334;10.392;2023-02-27T09:24:27;102259.69;;;1.30;81.21
61478;BME280;47345;52.334;10.392;2023-02-27T09:27:00;102264.49;;;1.39;81.40
61478;BME280;47345;52.334;10.392;2023-02-27T09:29:32;102265.94;;;1.47;81.37
61478;BME280;47345;52.334;10.392;2023-02-27T09:32:05;102264.33;;;1.54;81.27
61478;BME280;47345;52.334;10.392;2023-02-27T09:34:38;102267.39;;;1.59;81.06
61478;BME280;47345;52.334;10.392;2023-02-27T09:37:10;102268.70;;;1.63;80.99
61478;BME280;47345;52.334;10.392;2023-02-27T09:39:43;102268.17;;;1.65;80.60
61478;BME280;47345;52.334;10.392;2023-02-27T09:42:20;102265.85;;;1.66;80.49
61478;BME280;47345;52.334;10.392;2023-02-27T09:44:54;102260.29;;;1.62;80.39
61478;BME280;47345;52.334;10.392;2023-02-27T09:47:32;102256.04;;;1.59;80.40
61478;BME280;47345;52.334;10.392;2023-02-27T09:50:16;102248.27;;;1.55;80.42
61478;BME280;47345;52.334;10.392;2023-02-27T09:52:51;102245.27;;;1.51;80.75
61478;BME280;47345;52.334;10.392;2023-02-27T09:55:24;102250.56;;;1.48;80.70
61478;BME280;47345;52.334;10.392;2023-02-27T09:58:05;102247.20;;;1.42;80.70
61478;BME280;47345;52.334;10.392;2023-02-27T10:00:46;102245.84;;;1.38;80.60
61478;BME280;47345;52.334;10.392;2023-02-27T10:03:28;102242.48;;;1.35;80.93
61478;BME280;47345;52.334;10.392;2023-02-27T10:06:16;102245.74;;;1.32;80.93
61478;BME280;47345;52.334;10.392;2023-02-27T10:09:03;102253.24;;;1.28;80.89
61478;BME280;47345;52.334;10.392;2023-02-27T10:11:47;102249.16;;;1.24;80.97
61478;BME280;47345;52.334;10.392;2023-02-27T10:14:29;102251.73;;;1.21;81.38
61478;BME280;47345;52.334;10.392;2023-02-27T10:17:10;102251.83;;;1.17;81.47
61478;BME280;47345;52.334;10.392;2023-02-27T10:19:45;102252.57;;;1.14;81.55
61478;BME280;47345;52.334;10.392;2023-02-27T10:22:23;102256.39;;;1.11;81.51
61478;BME280;47345;52.334;10.392;2023-02-27T10:25:00;102258.46;;;1.09;81.85
61478;BME280;47345;52.334;10.392;2023-02-27T10:27:35;102261.70;;;1.09;81.83
61478;BME280;47345;52.334;10.392;2023-02-27T10:30:21;102262.04;;;1.10;81.85
61478;BME280;47345;52.334;10.392;2023-02-27T10:33:05;102265.65;;;1.12;81.97
61478;BME280;47345;52.334;10.392;2023-02-27T10:35:42;102266.91;;;1.17;81.71
61478;BME280;47345;52.334;10.392;2023-02-27T10:38:18;102271.39;;;1.23;81.69
61478;BME280;47345;52.334;10.392;2023-02-27T10:40:50;102267.92;;;1.26;80.97
61478;BME280;47345;52.334;10.392;2023-02-27T10:43:23;102273.22;;;1.27;80.63
61478;BME280;47345;52.334;10.392;2023-02-27T10:45:55;102272.56;;;1.29;80.35
61478;BME280;47345;52.334;10.392;2023-02-27T10:48:27;102269.91;;;1.31;80.45
61478;BME280;47345;52.334;10.392;2023-02-27T10:54:23;102264.93;;;1.35;80.00
61478;BME280;47345;52.334;10.392;2023-02-27T10:56:57;102267.88;;;1.39;79.82
61478;BME280;47345;52.334;10.392;2023-02-27T10:59:34;102263.61;;;1.44;80.00
61478;BME280;47345;52.334;10.392;2023-02-27T11:02:18;102263.58;;;1.49;79.86
61478;BME280;47345;52.334;10.392;2023-02-27T11:04:53;102266.27;;;1.57;79.54
61478;BME280;47345;52.334;10.392;2023-02-27T11:07:32;102265.83;;;1.63;79.00
61478;BME280;47345;52.334;10.392;2023-02-27T11:10:16;102271.91;;;1.69;78.82
61478;BME280;47345;52.334;10.392;2023-02-27T11:13:02;102270.03;;;1.74;78.86
61478;BME280;47345;52.334;10.392;2023-02-27T11:15:36;102271.58;;;1.81;78.65
61478;BME280;47345;52.334;10.392;2023-02-27T11:18:26;102272.61;;;1.89;78.42
61478;BME280;47345;52.334;10.392;2023-02-27T11:21:14;102261.53;;;1.98;78.04
61478;BME280;47345;52.334;10.392;2023-02-27T11:23:58;102260.98;;;2.05;78.26
61478;BME280;47345;52.334;10.392;2023-02-27T11:26:33;102257.49;;;2.11;78.19
61478;BME280;47345;52.334;10.392;2023-02-27T11:29:13;102257.02;;;2.15;77.79
61478;BME280;47345;52.334;10.392;2023-02-27T11:31:51;102250.79;;;2.19;78.08
61478;BME280;47345;52.334;10.392;2023-02-27T11:34:31;102252.71;;;2.25;77.95
61478;BME280;47345;52.334;10.392;2023-02-27T11:37:07;102245.45;;;2.28;77.49
61478;BME280;47345;52.334;10.392;2023-02-27T11:39:52;102242.72;;;2.33;76.98
61478;BME280;47345;52.334;10.392;2023-02-27T11:42:31;102243.81;;;2.38;75.33
61478;BME280;47345;52.334;10.392;2023-02-27T11:45:06;102235.29;;;2.41;75.90
61478;BME280;47345;52.334;10.392;2023-02-27T11:47:41;102233.70;;;2.45;75.81
61478;BME280;47345;52.334;10.392;2023-02-27T11:50:36;102229.91;;;2.48;75.42
61478;BME280;47345;52.334;10.392;2023-02-27T11:53:31;102231.44;;;2.51;75.60
61478;BME280;47345;52.334;10.392;2023-02-27T11:56:09;102227.92;;;2.55;75.40
61478;BME280;47345;52.334;10.392;2023-02-27T11:58:47;102227.28;;;2.59;75.30
61478;BME280;47345;52.334;10.392;2023-02-27T12:01:23;102233.70;;;2.66;74.64
61478;BME280;47345;52.334;10.392;2023-02-27T12:04:01;102232.10;;;2.71;74.61
61478;BME280;47345;52.334;10.392;2023-02-27T12:06:39;102231.85;;;2.77;74.29
61478;BME280;47345;52.334;10.392;2023-02-27T12:09:26;102235.52;;;2.80;73.68
61478;BME280;47345;52.334;10.392;2023-02-27T12:12:08;102234.87;;;2.84;73.49
61478;BME280;47345;52.334;10.392;2023-02-27T12:14:50;102228.29;;;2.85;73.56
61478;BME280;47345;52.334;10.392;2023-02-27T12:17:28;102232.18;;;2.89;73.75
61478;BME280;47345;52.334;10.392;2023-02-27T12:20:17;102234.64;;;2.90;73.35
61478;BME280;47345;52.334;10.392;2023-02-27T12:22:54;102231.73;;;2.87;72.88
61478;BME280;47345;52.334;10.392;2023-02-27T12:25:37;102233.70;;;2.86;73.26
61478;BME280;47345;52.334;10.392;2023-02-27T12:28:29;102237.74;;;2.82;72.45
61478;BME280;47345;52.334;10.392;2023-02-27T12:31:10;102238.36;;;2.81;73.02
61478;BME280;47345;52.334;10.392;2023-02-27T12:33:51;102234.34;;;2.82;72.31
61478;BME280;47345;52.334;10.392;2023-02-27T12:36:27;102237.89;;;2.85;72.21
61478;BME280;47345;52.334;10.392;2023-02-27T12:38:59;102238.89;;;2.90;72.07
61478;BME280;47345;52.334;10.392;2023-02-27T12:41:44;102240.65;;;2.98;72.32
61478;BME280;47345;52.334;10.392;2023-02-27T12:44:38;102237.69;;;3.08;71.92
61478;BME280;47345;52.334;10.392;2023-02-27T12:47:26;102236.08;;;3.22;71.92
61478;BME280;47345;52.334;10.392;2023-02-27T12:50:05;102232.44;;;3.34;71.16
61478;BME280;47345;52.334;10.392;2023-02-27T12:52:47;102232.73;;;3.46;71.37
61478;BME280;47345;52.334;10.392;2023-02-27T12:55:27;102233.27;;;3.57;71.23
61478;BME280;47345;52.334;10.392;2023-02-27T12:58:19;102226.18;;;3.65;70.76
61478;BME280;47345;52.334;10.392;2023-02-27T13:00:59;102232.59;;;3.70;70.46
61478;BME280;47345;52.334;10.392;2023-02-27T13:03:37;102233.12;;;3.73;69.61
61478;BME280;47345;52.334;10.392;2023-02-27T13:06:15;102237.15;;;3.74;68.94
61478;BME280;47345;52.334;10.392;2023-02-27T13:09:10;102232.81;;;3.74;68.14
61478;BME280;47345;52.334;10.392;2023-02-27T13:11:52;102233.35;;;3.70;66.97
61478;BME280;47345;52.334;10.392;2023-02-27T13:14:38;102227.63;;;3.67;67.40
61478;BME280;47345;52.334;10.392;2023-02-27T13:17:19;102231.63;;;3.67;67.24
61478;BME280;47345;52.334;10.392;2023-02-27T13:19:56;102226.65;;;3.66;66.70
61478;BME280;47345;52.334;10.392;2023-02-27T13:22:36;102227.34;;;3.66;67.04
61478;BME280;47345;52.334;10.392;2023-02-27T13:25:13;102230.64;;;3.70;67.59
61478;BME280;47345;52.334;10.392;2023-02-27T13:27:49;102229.94;;;3.74;67.78
61478;BME280;47345;52.334;10.392;2023-02-27T13:30:25;102225.02;;;3.79;67.87
61478;BME280;47345;52.334;10.392;2023-02-27T13:33:10;102219.62;;;3.83;68.06
61478;BME280;47345;52.334;10.392;2023-02-27T13:35:50;102223.35;;;3.89;67.57
61478;BME280;47345;52.334;10.392;2023-02-27T13:38:39;102220.55;;;3.94;67.12
61478;BME280;47345;52.334;10.392;2023-02-27T13:41:34;102215.34;;;4.00;67.73
61478;BME280;47345;52.334;10.392;2023-02-27T13:47:42;102219.04;;;4.14;66.97
61478;BME280;47345;52.334;10.392;2023-02-27T13:50:49;102220.55;;;4.21;66.65